createdAt,value
2018-06-15T00:00:24.439Z,79.26
2018-06-15T00:02:58.380Z,80.31
2018-06-15T00:05:27.123Z,79.24
2018-06-15T00:07:55.759Z,79.77
2018-06-15T00:10:24.436Z,79.65
2018-06-15T00:12:53.235Z,80.29
2018-06-15T00:15:21.852Z,80.00
2018-06-15T00:17:50.508Z,79.78
2018-06-15T00:20:19.171Z,80.02
2018-06-15T00:22:47.814Z,79.71
2018-06-15T00:25:16.502Z,79.29
2018-06-15T00:27:45.231Z,79.96
2018-06-15T00:30:13.870Z,80.45
2018-06-15T00:32:42.510Z,80.19
2018-06-15T00:35:11.168Z,78.90
2018-06-15T00:37:39.826Z,79.34
2018-06-15T00:40:08.511Z,79.26
2018-06-15T00:42:37.291Z,79.24
2018-06-15T00:45:05.945Z,79.09
2018-06-15T00:47:34.632Z,79.20
2018-06-15T00:50:03.352Z,78.95
2018-06-15T00:52:31.980Z,79.11
2018-06-15T00:55:00.741Z,79.00
2018-06-15T00:57:40.474Z,79.73
2018-06-15T01:00:09.188Z,80.51
2018-06-15T01:02:37.838Z,80.40
2018-06-15T01:05:06.490Z,80.25
2018-06-15T01:07:35.134Z,80.65
2018-06-15T01:10:03.854Z,79.99
2018-06-15T01:12:32.502Z,80.10
2018-06-15T01:15:01.240Z,80.36
2018-06-15T01:17:29.857Z,80.65
2018-06-15T01:19:59.196Z,79.63
2018-06-15T01:22:27.858Z,79.20
2018-06-15T01:24:56.494Z,79.15
2018-06-15T01:27:25.146Z,78.03
2018-06-15T01:29:53.935Z,78.53
2018-06-15T01:32:22.606Z,79.11
2018-06-15T01:34:51.358Z,79.50
2018-06-15T01:37:20.044Z,79.76
2018-06-15T01:39:48.692Z,79.99
2018-06-15T01:42:17.423Z,80.09
2018-06-15T01:44:46.099Z,80.47
2018-06-15T01:47:14.756Z,80.31
2018-06-15T01:49:43.419Z,79.94
2018-06-15T01:52:12.055Z,80.40
2018-06-15T01:54:40.707Z,79.88
2018-06-15T01:57:09.487Z,80.07
2018-06-15T01:59:38.178Z,79.99
2018-06-15T02:02:06.830Z,80.76
2018-06-15T02:04:35.480Z,80.40
2018-06-15T02:07:04.201Z,79.96
2018-06-15T02:09:32.894Z,79.90
2018-06-15T02:12:01.531Z,79.68
2018-06-15T02:14:30.270Z,78.77
2018-06-15T02:16:58.944Z,79.68
2018-06-15T02:19:27.621Z,78.41
2018-06-15T02:21:56.257Z,78.87
2018-06-15T02:24:24.976Z,78.73
2018-06-15T02:26:53.864Z,78.72
2018-06-15T02:29:22.554Z,79.24
2018-06-15T02:31:51.211Z,78.81
2018-06-15T02:34:19.822Z,79.58
2018-06-15T02:36:48.482Z,78.75
2018-06-15T02:39:17.159Z,79.43
2018-06-15T02:41:45.824Z,79.66
2018-06-15T02:44:14.474Z,79.00
2018-06-15T02:46:43.113Z,79.83
2018-06-15T02:49:11.752Z,79.09
2018-06-15T02:51:40.483Z,79.43
2018-06-15T02:54:09.201Z,79.97
2018-06-15T02:56:37.941Z,79.93
2018-06-15T02:59:07.459Z,79.47
2018-06-15T03:01:36.115Z,79.61
2018-06-15T03:04:05.736Z,80.31
2018-06-15T03:06:34.392Z,80.22
2018-06-15T03:09:04.742Z,80.28
2018-06-15T03:11:33.681Z,81.36
2018-06-15T03:14:02.330Z,79.92
2018-06-15T03:16:31.106Z,79.66
2018-06-15T03:18:59.728Z,80.42
2018-06-15T03:21:28.384Z,80.69
2018-06-15T03:23:57.014Z,80.66
2018-06-15T03:26:25.687Z,80.49
2018-06-15T03:28:54.896Z,79.84
2018-06-15T03:31:23.533Z,81.34
2018-06-15T03:33:52.240Z,81.02
2018-06-15T03:36:20.890Z,81.02
2018-06-15T03:38:49.577Z,81.50
2018-06-15T03:41:18.243Z,81.18
2018-06-15T03:43:46.913Z,81.04
2018-06-15T03:46:15.557Z,80.71
2018-06-15T03:48:44.287Z,80.66
2018-06-15T03:51:12.981Z,80.79
2018-06-15T03:53:41.733Z,80.45
2018-06-15T03:56:10.361Z,79.84
2018-06-15T03:58:38.990Z,80.24
2018-06-15T04:01:07.716Z,80.45
2018-06-15T04:03:36.905Z,80.64
2018-06-15T04:06:05.626Z,79.88
2018-06-15T04:08:34.259Z,80.22
2018-06-15T04:11:02.879Z,80.21
2018-06-15T04:13:31.569Z,80.39
2018-06-15T04:16:00.313Z,80.50
2018-06-15T04:18:28.989Z,80.26
2018-06-15T04:20:57.653Z,79.79
2018-06-15T04:23:26.349Z,79.65
2018-06-15T04:25:55.001Z,80.05
2018-06-15T04:28:23.697Z,78.75
2018-06-15T04:30:53.115Z,78.67
2018-06-15T04:33:21.739Z,78.88
2018-06-15T04:35:50.402Z,77.97
2018-06-15T04:38:19.080Z,79.35
2018-06-15T04:40:47.807Z,78.18
2018-06-15T04:43:16.450Z,76.56
2018-06-15T04:45:45.071Z,76.90
2018-06-15T04:48:14.398Z,77.81
2018-06-15T04:50:43.024Z,77.65
2018-06-15T04:53:11.727Z,77.57
2018-06-15T04:55:40.412Z,77.59
2018-06-15T04:58:09.203Z,77.71
2018-06-15T05:00:37.920Z,77.36
2018-06-15T05:03:07.685Z,76.87
2018-06-15T05:05:36.372Z,75.74
2018-06-15T05:08:05.024Z,75.92
2018-06-15T05:10:33.695Z,76.02
2018-06-15T05:13:03.211Z,74.69
2018-06-15T05:15:31.859Z,75.58
2018-06-15T05:18:00.578Z,75.98
2018-06-15T05:20:29.282Z,76.49
2018-06-15T05:22:58.686Z,74.72
2018-06-15T05:25:27.383Z,74.37
2018-06-15T05:27:57.071Z,74.12
2018-06-15T05:30:25.752Z,73.58
2018-06-15T05:32:54.949Z,73.66
2018-06-15T05:35:23.665Z,74.44
2018-06-15T05:37:52.390Z,73.95
2018-06-15T05:40:21.087Z,74.85
2018-06-15T05:42:49.834Z,73.04
2018-06-15T05:45:18.623Z,73.65
2018-06-15T05:47:47.280Z,72.50
2018-06-15T05:50:15.983Z,73.15
2018-06-15T05:52:44.666Z,73.70
2018-06-15T05:55:13.340Z,73.33
2018-06-15T05:57:42.008Z,73.80
2018-06-15T06:00:10.679Z,72.53
2018-06-15T06:02:39.460Z,73.46
2018-06-15T06:05:08.190Z,72.87
2018-06-15T06:07:36.835Z,73.33
2018-06-15T06:10:06.021Z,72.33
2018-06-15T06:12:34.690Z,72.06
2018-06-15T06:15:03.650Z,73.28
2018-06-15T06:17:32.369Z,72.68
2018-06-15T06:20:01.193Z,72.36
2018-06-15T06:22:30.730Z,72.78
2018-06-15T06:24:59.445Z,73.21
2018-06-15T06:27:28.155Z,72.25
2018-06-15T06:29:56.919Z,72.04
2018-06-15T06:32:25.626Z,71.04
2018-06-15T06:34:54.302Z,70.42
2018-06-15T06:37:23.144Z,68.92
2018-06-15T06:39:51.808Z,68.96
2018-06-15T06:42:20.498Z,68.77
2018-06-15T06:44:49.546Z,69.01
2018-06-15T06:47:18.258Z,69.57
2018-06-15T06:49:46.947Z,69.33
2018-06-15T06:52:16.647Z,70.39
2018-06-15T06:54:45.342Z,70.26
2018-06-15T06:57:14.376Z,67.87
2018-06-15T06:59:43.034Z,66.85
2018-06-15T07:02:11.830Z,67.42
2018-06-15T07:04:40.454Z,66.09
2018-06-15T07:07:09.154Z,62.96
2018-06-15T07:09:37.869Z,61.46
2018-06-15T07:12:06.548Z,63.83
2018-06-15T07:14:35.306Z,60.92
2018-06-15T07:17:03.947Z,62.93
2018-06-15T07:19:32.639Z,62.25
2018-06-15T07:22:01.333Z,62.29
2018-06-15T07:24:30.187Z,61.09
2018-06-15T07:26:58.843Z,58.83
2018-06-15T07:29:27.528Z,57.31
2018-06-15T07:31:56.212Z,58.34
2018-06-15T07:34:24.879Z,58.76
2018-06-15T07:36:53.544Z,59.03
2018-06-15T07:39:22.205Z,57.26
2018-06-15T07:41:50.916Z,56.87
2018-06-15T07:44:19.562Z,56.74
2018-06-15T07:46:48.230Z,58.17
2018-06-15T07:49:17.023Z,58.30
2018-06-15T07:51:45.731Z,56.83
2018-06-15T07:54:14.366Z,56.18
2018-06-15T07:56:43.040Z,55.35
2018-06-15T07:59:11.782Z,56.23
2018-06-15T08:01:40.448Z,56.35
2018-06-15T08:04:11.406Z,57.26
2018-06-15T08:06:40.354Z,55.62
2018-06-15T08:09:09.856Z,56.28
2018-06-15T08:11:38.874Z,56.29
2018-06-15T08:14:07.529Z,55.74
2018-06-15T08:16:36.168Z,55.45
2018-06-15T08:19:04.870Z,55.57
2018-06-15T08:21:33.538Z,56.18
2018-06-15T08:24:02.155Z,56.16
2018-06-15T08:26:30.819Z,56.26
2018-06-15T08:28:59.475Z,53.92
2018-06-15T08:31:28.215Z,54.03
2018-06-15T08:33:56.888Z,54.97
2018-06-15T08:36:25.563Z,53.29
2018-06-15T08:38:54.246Z,52.78
2018-06-15T08:41:22.910Z,52.46
2018-06-15T08:43:51.671Z,50.63
2018-06-15T08:46:20.320Z,52.50
2018-06-15T08:48:49.861Z,52.99
2018-06-15T08:51:18.528Z,52.30
2018-06-15T08:53:47.196Z,52.95
2018-06-15T08:56:15.855Z,51.97
2018-06-15T09:01:23.154Z,51.14
2018-06-15T09:03:51.895Z,50.59
2018-06-15T09:06:20.526Z,50.36
2018-06-15T09:08:49.215Z,50.58
2018-06-15T09:11:17.950Z,48.61
2018-06-15T09:13:46.623Z,49.15
2018-06-15T09:16:15.300Z,50.78
2018-06-15T09:18:43.965Z,50.24
2018-06-15T09:21:12.680Z,49.73
2018-06-15T09:23:41.445Z,48.76
2018-06-15T09:26:10.161Z,50.30
2018-06-15T09:28:38.929Z,49.61
2018-06-15T09:31:08.089Z,50.82
2018-06-15T09:33:36.798Z,48.86
2018-06-15T09:36:05.476Z,48.72
2018-06-15T09:38:34.261Z,46.48
2018-06-15T09:41:02.947Z,48.59
2018-06-15T09:43:32.564Z,47.82
2018-06-15T09:46:01.261Z,47.84
2018-06-15T09:48:30.926Z,48.83
2018-06-15T09:50:59.645Z,48.83
2018-06-15T09:53:28.339Z,49.69
2018-06-15T09:55:57.862Z,48.44
2018-06-15T09:58:27.105Z,47.46
2018-06-15T10:01:12.274Z,47.90
2018-06-15T10:03:41.315Z,46.98
2018-06-15T10:06:09.977Z,47.31
2018-06-15T10:08:38.683Z,47.85
2018-06-15T10:11:07.299Z,48.70
2018-06-15T10:13:35.944Z,48.83
2018-06-15T10:16:04.710Z,49.41
2018-06-15T10:18:33.330Z,52.95
2018-06-15T10:21:01.954Z,56.05
2018-06-15T10:23:30.583Z,59.58
2018-06-15T10:25:59.610Z,57.24
2018-06-15T10:28:28.265Z,57.27
2018-06-15T10:30:56.928Z,55.18
2018-06-15T10:33:25.694Z,60.60
2018-06-15T10:35:54.475Z,59.30
2018-06-15T10:38:23.107Z,61.10
2018-06-15T10:40:51.863Z,58.58
2018-06-15T10:43:20.499Z,56.35
2018-06-15T10:45:49.256Z,57.66
2018-06-15T10:48:17.933Z,51.40
2018-06-15T10:50:46.573Z,52.23
2018-06-15T10:53:15.221Z,50.50
2018-06-15T10:55:43.887Z,50.98
2018-06-15T10:58:12.658Z,50.91
2018-06-15T11:00:45.024Z,54.94
2018-06-15T11:03:13.669Z,49.97
2018-06-15T11:05:42.366Z,47.70
2018-06-15T11:08:11.034Z,48.62
2018-06-15T11:10:39.809Z,43.84
2018-06-15T11:13:08.610Z,42.29
2018-06-15T11:15:37.912Z,42.55
2018-06-15T11:18:06.696Z,43.36
2018-06-15T11:20:36.316Z,42.40
2018-06-15T11:23:05.040Z,42.90
2018-06-15T11:25:33.789Z,44.64
2018-06-15T11:28:02.540Z,44.19
2018-06-15T11:30:31.305Z,45.68
2018-06-15T11:33:00.073Z,44.83
2018-06-15T11:35:29.726Z,47.30
2018-06-15T11:37:58.532Z,47.86
2018-06-15T11:40:27.228Z,48.48
2018-06-15T11:42:55.916Z,50.00
2018-06-15T11:45:25.870Z,52.08
2018-06-15T11:47:54.635Z,52.77
2018-06-15T11:50:23.333Z,53.54
2018-06-15T11:52:52.032Z,54.73
2018-06-15T11:55:20.732Z,55.16
2018-06-15T11:57:49.387Z,54.58
2018-06-15T12:00:18.050Z,55.58
2018-06-15T12:02:46.700Z,55.21
2018-06-15T12:05:15.465Z,55.09
2018-06-15T12:07:44.118Z,55.97
2018-06-15T12:10:12.754Z,54.55
2018-06-15T12:12:41.450Z,53.74
2018-06-15T12:15:10.100Z,54.02
2018-06-15T12:17:38.778Z,53.93
2018-06-15T12:20:07.464Z,53.60
2018-06-15T12:22:36.183Z,53.78
2018-06-15T12:25:05.147Z,53.29
2018-06-15T12:27:33.826Z,53.16
2018-06-15T12:30:04.091Z,52.70
2018-06-15T12:32:32.784Z,52.49
2018-06-15T12:35:01.428Z,51.11
2018-06-15T12:37:30.477Z,51.03
2018-06-15T12:39:59.146Z,51.96
2018-06-15T12:42:27.786Z,51.60
2018-06-15T12:44:56.419Z,51.38
2018-06-15T12:47:25.121Z,51.17
2018-06-15T12:49:53.886Z,51.52
2018-06-15T12:52:22.504Z,50.33
2018-06-15T12:54:51.154Z,50.54
2018-06-15T12:57:19.925Z,48.60
2018-06-15T12:59:48.546Z,48.54
2018-06-15T13:02:17.186Z,47.95
2018-06-15T13:04:45.913Z,46.48
2018-06-15T13:07:14.580Z,47.76
2018-06-15T13:09:43.249Z,47.68
2018-06-15T13:12:11.910Z,48.47
2018-06-15T13:14:40.695Z,47.66
2018-06-15T13:17:09.327Z,47.83
2018-06-15T13:19:37.955Z,47.55
2018-06-15T13:22:06.789Z,48.75
2018-06-15T13:24:36.387Z,49.55
2018-06-15T13:27:05.108Z,49.86
2018-06-15T13:29:33.805Z,49.08
2018-06-15T13:32:02.483Z,51.47
2018-06-15T13:34:31.140Z,51.55
2018-06-15T13:36:59.812Z,53.48
2018-06-15T13:39:28.461Z,53.66
2018-06-15T13:41:57.266Z,53.75
2018-06-15T13:44:25.868Z,53.76
2018-06-15T13:46:55.115Z,54.15
2018-06-15T13:49:24.225Z,55.03
2018-06-15T13:51:52.923Z,55.06
2018-06-15T13:54:21.577Z,54.94
2018-06-15T13:56:50.233Z,56.87
2018-06-15T13:59:18.882Z,58.08
2018-06-15T14:01:47.555Z,58.04
2018-06-15T14:04:16.251Z,58.87
2018-06-15T14:06:44.855Z,59.34
2018-06-15T14:09:13.679Z,59.44
2018-06-15T14:11:42.351Z,59.43
2018-06-15T14:14:11.656Z,59.90
2018-06-15T14:16:40.331Z,59.55
2018-06-15T14:19:09.065Z,60.13
2018-06-15T14:21:37.761Z,62.14
2018-06-15T14:24:06.717Z,63.54
2018-06-15T14:26:35.431Z,64.18
2018-06-15T14:29:04.165Z,64.68
2018-06-15T14:31:32.862Z,65.94
2018-06-15T14:34:01.641Z,67.77
2018-06-15T14:36:30.469Z,68.67
2018-06-15T14:38:59.137Z,69.71
2018-06-15T14:41:27.826Z,71.14
2018-06-15T14:43:56.527Z,73.37
2018-06-15T14:46:25.175Z,75.45
2018-06-15T14:48:53.846Z,76.87
2018-06-15T14:51:22.434Z,77.22
2018-06-15T14:53:51.122Z,79.04
2018-06-15T14:56:19.780Z,80.08
2018-06-15T14:58:48.526Z,79.59
2018-06-15T15:01:17.155Z,80.65
2018-06-15T15:03:45.743Z,77.66
2018-06-15T15:06:14.454Z,79.72
2018-06-15T15:08:43.213Z,76.78
2018-06-15T15:11:11.876Z,77.17
2018-06-15T15:13:40.565Z,79.93
2018-06-15T15:16:09.164Z,81.43
2018-06-15T15:18:37.807Z,80.27
2018-06-15T15:21:06.485Z,80.53
2018-06-15T15:23:35.154Z,82.34
2018-06-15T15:26:03.846Z,81.42
2018-06-15T15:28:32.457Z,81.52
2018-06-15T15:31:01.079Z,81.32
2018-06-15T15:33:29.759Z,81.74
2018-06-15T15:35:59.094Z,82.29
2018-06-15T15:38:27.737Z,82.92
2018-06-15T15:40:56.577Z,82.12
2018-06-15T15:43:25.806Z,81.90
2018-06-15T15:45:54.394Z,81.68
2018-06-15T15:48:23.018Z,81.27
2018-06-15T15:50:51.773Z,81.20
2018-06-15T15:53:20.478Z,80.53
2018-06-15T15:55:49.099Z,80.53
2018-06-15T15:58:17.727Z,77.67
2018-06-15T16:00:46.434Z,77.84
2018-06-15T16:03:15.304Z,77.97
2018-06-15T16:05:44.052Z,78.13
2018-06-15T16:08:12.766Z,78.42
2018-06-15T16:10:41.586Z,78.29
2018-06-15T16:13:10.254Z,77.41
2018-06-15T16:15:39.733Z,77.06
2018-06-15T16:18:08.427Z,78.62
2018-06-15T16:20:37.047Z,78.48
2018-06-15T16:23:05.751Z,78.09
2018-06-15T16:25:34.398Z,76.78
2018-06-15T16:28:03.043Z,77.92
2018-06-15T16:30:31.743Z,78.77
2018-06-15T16:33:00.435Z,79.65
2018-06-15T16:35:29.088Z,79.86
2018-06-15T16:37:57.839Z,79.47
2018-06-15T16:40:26.568Z,78.38
2018-06-15T16:42:55.239Z,78.29
2018-06-15T16:45:23.877Z,76.64
2018-06-15T16:47:52.755Z,77.40
2018-06-15T16:50:21.393Z,78.68
2018-06-15T16:52:50.052Z,79.83
2018-06-15T16:55:18.695Z,79.27
2018-06-15T16:57:47.432Z,79.55
2018-06-15T17:00:16.171Z,77.92
2018-06-15T17:02:44.879Z,76.83
2018-06-15T17:05:13.526Z,77.93
2018-06-15T17:07:42.158Z,79.50
2018-06-15T17:10:10.785Z,79.21
2018-06-15T17:12:39.476Z,79.00
2018-06-15T17:15:08.273Z,76.21
2018-06-15T17:17:36.932Z,75.46
2018-06-15T17:20:05.708Z,77.36
2018-06-15T17:22:34.355Z,76.60
2018-06-15T17:25:03.022Z,78.68
2018-06-15T17:27:32.108Z,78.66
2018-06-15T17:30:00.908Z,77.98
2018-06-15T17:32:29.549Z,79.02
2018-06-15T17:34:58.201Z,80.23
2018-06-15T17:37:26.838Z,79.88
2018-06-15T17:39:55.748Z,80.27
2018-06-15T17:42:24.378Z,79.91
2018-06-15T17:44:53.113Z,80.58
2018-06-15T17:47:21.804Z,81.03
2018-06-15T17:49:50.504Z,80.94
2018-06-15T17:52:19.181Z,81.34
2018-06-15T17:54:47.830Z,80.58
2018-06-15T17:57:16.620Z,80.28
2018-06-15T17:59:45.393Z,79.64
2018-06-15T18:02:14.074Z,78.32
2018-06-15T18:04:42.803Z,79.06
2018-06-15T18:07:11.699Z,78.13
2018-06-15T18:09:40.341Z,77.90
2018-06-15T18:12:10.131Z,75.40
2018-06-15T18:14:38.907Z,76.64
2018-06-15T18:17:07.692Z,77.07
2018-06-15T18:19:41.544Z,79.03
2018-06-15T18:22:14.494Z,79.70
2018-06-15T18:24:44.019Z,80.20
2018-06-15T18:27:12.670Z,80.34
2018-06-15T18:29:41.432Z,80.53
2018-06-15T18:32:12.372Z,80.59
2018-06-15T18:34:41.249Z,81.14
2018-06-15T18:37:10.062Z,81.44
2018-06-15T18:39:38.799Z,81.10
2018-06-15T18:42:07.600Z,81.13
2018-06-15T18:44:36.290Z,81.05
2018-06-15T18:47:04.950Z,81.02
2018-06-15T18:49:33.574Z,81.10
2018-06-15T18:52:02.244Z,81.75
2018-06-15T18:54:31.670Z,80.98
2018-06-15T18:57:00.431Z,80.75
2018-06-15T18:59:29.091Z,80.47
2018-06-15T19:01:58.071Z,79.55
2018-06-15T19:04:26.737Z,79.92
2018-06-15T19:06:55.515Z,80.06
2018-06-15T19:09:24.139Z,80.02
2018-06-15T19:11:52.876Z,79.97
2018-06-15T19:14:21.659Z,80.41
2018-06-15T19:16:50.300Z,80.50
2018-06-15T19:19:19.289Z,81.05
2018-06-15T19:21:47.951Z,80.60
2018-06-15T19:24:16.605Z,80.59
2018-06-15T19:26:45.264Z,81.16
2018-06-15T19:29:14.061Z,81.76
2018-06-15T19:31:42.752Z,81.28
2018-06-15T19:34:11.410Z,79.79
2018-06-15T19:36:43.070Z,80.51
2018-06-15T19:39:11.716Z,79.78
2018-06-15T19:41:40.373Z,79.27
2018-06-15T19:44:09.006Z,80.15
2018-06-15T19:46:37.730Z,79.49
2018-06-15T19:49:06.411Z,78.34
2018-06-15T19:51:35.114Z,78.24
2018-06-15T19:54:03.953Z,78.72
2018-06-15T19:56:32.602Z,78.10
2018-06-15T19:59:01.321Z,78.86
2018-06-15T20:01:30.133Z,78.66
2018-06-15T20:03:59.480Z,78.87
2018-06-15T20:06:29.347Z,78.68
2018-06-15T20:08:57.979Z,78.27
2018-06-15T20:11:26.836Z,78.36
2018-06-15T20:13:55.730Z,78.26
2018-06-15T20:16:24.450Z,78.54
2018-06-15T20:18:53.102Z,78.63
2018-06-15T20:21:21.787Z,78.69
2018-06-15T20:23:50.470Z,77.81
2018-06-15T20:26:19.439Z,78.01
2018-06-15T20:28:48.165Z,77.88
2018-06-15T20:31:16.959Z,78.48
2018-06-15T20:33:45.615Z,78.90
2018-06-15T20:36:14.563Z,78.37
2018-06-15T20:38:43.204Z,77.31
2018-06-15T20:41:12.774Z,77.12
2018-06-15T20:43:41.563Z,79.01
2018-06-15T20:46:10.762Z,78.47
2018-06-15T20:48:39.412Z,79.27
2018-06-15T20:51:08.206Z,78.74
2018-06-15T20:53:37.235Z,80.56
2018-06-15T20:56:06.124Z,80.00
2018-06-15T20:58:34.816Z,81.11
2018-06-15T21:01:03.548Z,81.01
2018-06-15T21:03:32.260Z,80.52
2018-06-15T21:06:01.420Z,80.99
2018-06-15T21:08:30.149Z,80.84
2018-06-15T21:10:58.874Z,80.69
2018-06-15T21:13:27.645Z,80.50
2018-06-15T21:15:56.374Z,81.01
2018-06-15T21:18:25.092Z,80.26
2018-06-15T21:20:53.834Z,80.41
2018-06-15T21:23:22.732Z,80.14
2018-06-15T21:25:51.418Z,80.76
2018-06-15T21:28:20.014Z,80.06
2018-06-15T21:30:48.727Z,80.29
2018-06-15T21:33:17.335Z,80.52
2018-06-15T21:35:46.066Z,80.73
2018-06-15T21:38:14.674Z,79.93
2018-06-15T21:40:43.350Z,80.37
2018-06-15T21:43:12.283Z,79.96
2018-06-15T21:45:41.032Z,79.35
2018-06-15T21:48:09.663Z,79.46
2018-06-15T21:50:38.334Z,79.04
2018-06-15T21:53:06.977Z,79.24
2018-06-15T21:55:35.676Z,79.89
2018-06-15T21:58:04.374Z,80.22
2018-06-15T22:00:33.072Z,80.90
2018-06-15T22:03:01.747Z,80.98
2018-06-15T22:05:30.410Z,81.24
2018-06-15T22:07:59.078Z,80.60
2018-06-15T22:10:27.708Z,78.74
2018-06-15T22:12:56.373Z,77.56
2018-06-15T22:15:25.665Z,78.34
2018-06-15T22:17:54.391Z,77.47
2018-06-15T22:20:22.985Z,77.92
2018-06-15T22:22:51.603Z,77.87
2018-06-15T22:25:20.296Z,78.10
2018-06-15T22:27:48.961Z,79.11
2018-06-15T22:30:17.671Z,79.58
2018-06-15T22:32:46.303Z,79.24
2018-06-15T22:35:14.904Z,79.74
2018-06-15T22:37:43.677Z,79.15
2018-06-15T22:40:12.353Z,78.92
2018-06-15T22:42:40.961Z,79.75
2018-06-15T22:45:09.582Z,79.44
2018-06-15T22:47:38.207Z,80.04
2018-06-15T22:50:06.822Z,80.71
2018-06-15T22:52:35.458Z,81.21
2018-06-15T22:55:04.161Z,81.85
2018-06-15T22:57:32.896Z,82.28
2018-06-15T23:00:01.519Z,82.15
2018-06-15T23:02:30.413Z,82.35
2018-06-15T23:04:59.051Z,81.58
2018-06-15T23:07:27.750Z,81.30
2018-06-15T23:09:56.397Z,80.58
2018-06-15T23:12:24.980Z,79.53
2018-06-15T23:14:53.664Z,79.88
2018-06-15T23:17:22.279Z,79.97
2018-06-15T23:19:50.946Z,79.55
2018-06-15T23:22:19.576Z,79.57
2018-06-15T23:24:48.242Z,80.40
2018-06-15T23:27:16.985Z,80.41
2018-06-15T23:29:45.643Z,80.13
2018-06-15T23:32:14.334Z,79.83
2018-06-15T23:34:43.043Z,79.40
2018-06-15T23:37:11.810Z,79.27
2018-06-15T23:39:40.554Z,79.46
2018-06-15T23:42:09.521Z,80.03
2018-06-15T23:44:38.207Z,79.60
2018-06-15T23:47:06.861Z,79.88
2018-06-15T23:49:35.505Z,80.13
2018-06-15T23:52:04.228Z,79.91
2018-06-15T23:54:32.839Z,79.60
2018-06-15T23:57:01.463Z,79.79
2018-06-15T23:59:30.111Z,79.54
